sensor_id;sensor_type;location;lat;lon;timestamp;pressure;altitude;pressure_sealevel;temperature;humidity
36354;BME280;22383;51.114;13.666;2023-05-10T00:01:58;68474.66;;;11.65;95.05
36354;BME280;22383;51.114;13.666;2023-05-10T00:04:32;68474.28;;;11.60;95.52
36354;BME280;22383;51.114;13.666;2023-05-10T00:06:59;68464.81;;;11.54;95.62
36354;BME280;22383;51.114;13.666;2023-05-10T00:09:26;68466.34;;;11.53;95.90
36354;BME280;22383;51.114;13.666;2023-05-10T00:11:53;68480.34;;;11.63;94.83
36354;BME280;22383;51.114;13.666;2023-05-10T00:14:21;68477.13;;;11.63;95.37
36354;BME280;22383;51.114;13.666;2023-05-10T00:16:48;68472.56;;;11.59;95.38
36354;BME280;22383;51.114;13.666;2023-05-10T00:19:17;68471.25;;;11.55;95.33
36354;BME280;22383;51.114;13.666;2023-05-10T00:21:48;68462.75;;;11.47;95.75
36354;BME280;22383;51.114;13.666;2023-05-10T00:24:16;68472.00;;;11.58;95.48
36354;BME280;22383;51.114;13.666;2023-05-10T00:26:43;68462.38;;;11.49;95.89
36354;BME280;22383;51.114;13.666;2023-05-10T00:29:10;68452.34;;;11.43;96.77
36354;BME280;22383;51.114;13.666;2023-05-10T00:31:38;68451.59;;;11.40;97.14
36354;BME280;22383;51.114;13.666;2023-05-10T00:34:05;68454.03;;;11.37;97.93
36354;BME280;22383;51.114;13.666;2023-05-10T00:36:32;68439.88;;;11.31;98.17
36354;BME280;22383;51.114;13.666;2023-05-10T00:39:06;68442.91;;;11.29;98.46
36354;BME280;22383;51.114;13.666;2023-05-10T00:41:33;68447.03;;;11.35;98.93
36354;BME280;22383;51.114;13.666;2023-05-10T00:44:05;68435.69;;;11.25;99.32
36354;BME280;22383;51.114;13.666;2023-05-10T00:46:32;68430.59;;;11.21;100.00
36354;BME280;22383;51.114;13.666;2023-05-10T00:49:00;68421.72;;;11.15;100.00
36354;BME280;22383;51.114;13.666;2023-05-10T00:51:29;68421.13;;;11.14;100.00
36354;BME280;22383;51.114;13.666;2023-05-10T00:53:59;68427.00;;;11.15;100.00
36354;BME280;22383;51.114;13.666;2023-05-10T00:56:54;68423.03;;;11.11;100.00
36354;BME280;22383;51.114;13.666;2023-05-10T00:59:21;68411.50;;;11.06;100.00
36354;BME280;22383;51.114;13.666;2023-05-10T01:01:49;68397.13;;;10.90;100.00
36354;BME280;22383;51.114;13.666;2023-05-10T01:04:16;68393.16;;;10.87;100.00
36354;BME280;22383;51.114;13.666;2023-05-10T01:06:43;68399.97;;;10.93;100.00
36354;BME280;22383;51.114;13.666;2023-05-10T01:09:10;68392.22;;;10.88;100.00
36354;BME280;22383;51.114;13.666;2023-05-10T01:11:39;68391.28;;;10.83;100.00
36354;BME280;22383;51.114;13.666;2023-05-10T01:14:07;68382.19;;;10.74;100.00
36354;BME280;22383;51.114;13.666;2023-05-10T01:16:36;68361.03;;;10.60;100.00
36354;BME280;22383;51.114;13.666;2023-05-10T01:19:07;68363.28;;;10.62;100.00
36354;BME280;22383;51.114;13.666;2023-05-10T01:33:18;68340.44;;;10.39;100.00
36354;BME280;22383;51.114;13.666;2023-05-10T01:38:44;68334.19;;;10.33;100.00
36354;BME280;22383;51.114;13.666;2023-05-10T01:46:36;68321.72;;;10.22;100.00
36354;BME280;22383;51.114;13.666;2023-05-10T01:49:16;68316.06;;;10.17;100.00
36354;BME280;22383;51.114;13.666;2023-05-10T01:51:53;68306.97;;;10.09;100.00
36354;BME280;22383;51.114;13.666;2023-05-10T01:54:27;68314.53;;;10.18;100.00
36354;BME280;22383;51.114;13.666;2023-05-10T01:56:59;68316.63;;;10.17;100.00
36354;BME280;22383;51.114;13.666;2023-05-10T01:59:34;68313.03;;;10.12;100.00
36354;BME280;22383;51.114;13.666;2023-05-10T02:02:10;68306.41;;;10.08;100.00
36354;BME280;22383;51.114;13.666;2023-05-10T02:04:46;68295.25;;;10.00;100.00
36354;BME280;22383;51.114;13.666;2023-05-10T02:07:21;68292.44;;;9.98;100.00
36354;BME280;22383;51.114;13.666;2023-05-10T02:09:53;68293.94;;;9.97;100.00
36354;BME280;22383;51.114;13.666;2023-05-10T02:12:22;68294.88;;;9.95;100.00
36354;BME280;22383;51.114;13.666;2023-05-10T02:14:50;68285.81;;;9.94;100.00
36354;BME280;22383;51.114;13.666;2023-05-10T02:17:20;68284.31;;;9.88;100.00
36354;BME280;22383;51.114;13.666;2023-05-10T02:19:51;68278.63;;;9.83;100.00
36354;BME280;22383;51.114;13.666;2023-05-10T02:22:18;68278.44;;;9.80;100.00
36354;BME280;22383;51.114;13.666;2023-05-10T02:24:47;68268.44;;;9.74;100.00
36354;BME280;22383;51.114;13.666;2023-05-10T02:27:15;68271.25;;;9.76;100.00
36354;BME280;22383;51.114;13.666;2023-05-10T02:29:43;68259.38;;;9.65;100.00
36354;BME280;22383;51.114;13.666;2023-05-10T02:32:11;68258.63;;;9.62;100.00
36354;BME280;22383;51.114;13.666;2023-05-10T02:34:46;68242.00;;;9.52;100.00
36354;BME280;22383;51.114;13.666;2023-05-10T02:37:20;68239.72;;;9.50;100.00
36354;BME280;22383;51.114;13.666;2023-05-10T02:39:49;68249.75;;;9.57;100.00
36354;BME280;22383;51.114;13.666;2023-05-10T02:42:18;68241.03;;;9.46;100.00
36354;BME280;22383;51.114;13.666;2023-05-10T02:44:59;68236.53;;;9.42;100.00
36354;BME280;22383;51.114;13.666;2023-05-10T02:47:28;68233.88;;;9.42;100.00
36354;BME280;22383;51.114;13.666;2023-05-10T02:49:59;68234.44;;;9.43;100.00
36354;BME280;22383;51.114;13.666;2023-05-10T02:52:45;68237.28;;;9.45;100.00
36354;BME280;22383;51.114;13.666;2023-05-10T02:55:14;68230.47;;;9.39;100.00
36354;BME280;22383;51.114;13.666;2023-05-10T02:57:49;68230.47;;;9.39;100.00
36354;BME280;22383;51.114;13.666;2023-05-10T03:00:18;68238.59;;;9.42;100.00
36354;BME280;22383;51.114;13.666;2023-05-10T03:02:53;68231.63;;;9.40;100.00
36354;BME280;22383;51.114;13.666;2023-05-10T03:05:30;68225.41;;;9.35;100.00
36354;BME280;22383;51.114;13.666;2023-05-10T03:08:00;68231.41;;;9.38;100.00
36354;BME280;22383;51.114;13.666;2023-05-10T03:10:45;68228.78;;;9.38;100.00
36354;BME280;22383;51.114;13.666;2023-05-10T03:13:39;68224.47;;;9.36;100.00
36354;BME280;22383;51.114;13.666;2023-05-10T03:16:15;68234.09;;;9.45;100.00
36354;BME280;22383;51.114;13.666;2023-05-10T03:18:55;68236.53;;;9.42;100.00
36354;BME280;22383;51.114;13.666;2023-05-10T03:21:25;68240.69;;;9.49;100.00
36354;BME280;22383;51.114;13.666;2023-05-10T03:23:59;68239.53;;;9.48;100.00
36354;BME280;22383;51.114;13.666;2023-05-10T03:26:31;68233.50;;;9.44;100.00
36354;BME280;22383;51.114;13.666;2023-05-10T03:29:08;68235.03;;;9.43;100.00
36354;BME280;22383;51.114;13.666;2023-05-10T03:31:39;68243.50;;;9.51;100.00
36354;BME280;22383;51.114;13.666;2023-05-10T03:34:07;68236.72;;;9.45;100.00
36354;BME280;22383;51.114;13.666;2023-05-10T03:36:34;68227.66;;;9.37;100.00
36354;BME280;22383;51.114;13.666;2023-05-10T03:39:01;68225.41;;;9.35;100.00
36354;BME280;22383;51.114;13.666;2023-05-10T03:41:42;68225.56;;;9.37;100.00
36354;BME280;22383;51.114;13.666;2023-05-10T03:44:10;68232.75;;;9.41;100.00
36354;BME280;22383;51.114;13.666;2023-05-10T03:46:40;68238.22;;;9.44;100.00
36354;BME280;22383;51.114;13.666;2023-05-10T03:49:19;68242.19;;;9.48;100.00
36354;BME280;22383;51.114;13.666;2023-05-10T03:51:46;68242.94;;;9.51;100.00
36354;BME280;22383;51.114;13.666;2023-05-10T03:54:13;68238.59;;;9.49;100.00
36354;BME280;22383;51.114;13.666;2023-05-10T03:56:40;68242.38;;;9.50;100.00
36354;BME280;22383;51.114;13.666;2023-05-10T03:59:10;68234.09;;;9.45;100.00
36354;BME280;22383;51.114;13.666;2023-05-10T04:01:43;68236.91;;;9.48;100.00
36354;BME280;22383;51.114;13.666;2023-05-10T04:04:11;68254.09;;;9.58;100.00
36354;BME280;22383;51.114;13.666;2023-05-10T04:06:39;68257.31;;;9.66;100.00
36354;BME280;22383;51.114;13.666;2023-05-10T04:09:07;68262.78;;;9.69;100.00
36354;BME280;22383;51.114;13.666;2023-05-10T04:11:35;68279.00;;;9.81;100.00
36354;BME280;22383;51.114;13.666;2023-05-10T04:14:02;68273.53;;;9.78;100.00
36354;BME280;22383;51.114;13.666;2023-05-10T04:16:32;68266.56;;;9.70;100.00
36354;BME280;22383;51.114;13.666;2023-05-10T04:19:08;68267.50;;;9.75;100.00
36354;BME280;22383;51.114;13.666;2023-05-10T04:21:36;68276.38;;;9.81;100.00
36354;BME280;22383;51.114;13.666;2023-05-10T04:24:03;68271.25;;;9.76;100.00
36354;BME280;22383;51.114;13.666;2023-05-10T04:26:30;68272.78;;;9.75;100.00
36354;BME280;22383;51.114;13.666;2023-05-10T04:28:58;68270.91;;;9.78;100.00
36354;BME280;22383;51.114;13.666;2023-05-10T04:31:28;68279.78;;;9.84;100.00
36354;BME280;22383;51.114;13.666;2023-05-10T04:33:55;68285.44;;;9.89;100.00
36354;BME280;22383;51.114;13.666;2023-05-10T04:36:22;68292.06;;;10.00;100.00
36354;BME280;22383;51.114;13.666;2023-05-10T04:38:51;68310.94;;;10.12;100.00
36354;BME280;22383;51.114;13.666;2023-05-10T04:41:21;68315.28;;;10.14;100.00
36354;BME280;22383;51.114;13.666;2023-05-10T04:43:50;68301.69;;;10.09;100.00
36354;BME280;22383;51.114;13.666;2023-05-10T04:46:24;68307.91;;;10.07;100.00
36354;BME280;22383;51.114;13.666;2023-05-10T04:48:52;68317.56;;;10.16;100.00
36354;BME280;22383;51.114;13.666;2023-05-10T04:51:28;68329.66;;;10.29;100.00
36354;BME280;22383;51.114;13.666;2023-05-10T04:54:06;68391.47;;;10.85;100.00
36354;BME280;22383;51.114;13.666;2023-05-10T04:56:35;68539.97;;;12.17;100.00
36354;BME280;22383;51.114;13.666;2023-05-10T04:59:05;68631.72;;;13.12;100.00
36354;BME280;22383;51.114;13.666;2023-05-10T05:01:35;68713.59;;;13.79;97.03
36354;BME280;22383;51.114;13.666;2023-05-10T05:04:05;68796.03;;;14.53;91.26
36354;BME280;22383;51.114;13.666;2023-05-10T05:06:33;68783.69;;;14.45;88.17
36354;BME280;22383;51.114;13.666;2023-05-10T05:09:02;68858.59;;;15.10;86.56
36354;BME280;22383;51.114;13.666;2023-05-10T05:11:32;68887.78;;;15.39;82.06
36354;BME280;22383;51.114;13.666;2023-05-10T05:14:05;68893.50;;;15.37;81.13
36354;BME280;22383;51.114;13.666;2023-05-10T05:16:32;68844.56;;;15.00;81.29
36354;BME280;22383;51.114;13.666;2023-05-10T05:19:00;68855.75;;;15.07;81.07
36354;BME280;22383;51.114;13.666;2023-05-10T05:21:35;68801.72;;;14.59;82.68
36354;BME280;22383;51.114;13.666;2023-05-10T05:24:05;68778.00;;;14.40;84.22
36354;BME280;22383;51.114;13.666;2023-05-10T05:26:43;68754.34;;;14.13;85.67
36354;BME280;22383;51.114;13.666;2023-05-10T05:29:11;68725.50;;;13.90;87.11
36354;BME280;22383;51.114;13.666;2023-05-10T05:31:40;68760.75;;;14.22;86.97
36354;BME280;22383;51.114;13.666;2023-05-10T05:34:07;68783.13;;;14.44;84.44
36354;BME280;22383;51.114;13.666;2023-05-10T05:36:41;68847.44;;;14.95;83.51
36354;BME280;22383;51.114;13.666;2023-05-10T05:39:10;68857.84;;;15.07;82.61
36354;BME280;22383;51.114;13.666;2023-05-10T05:41:38;68919.88;;;15.63;80.01
36354;BME280;22383;51.114;13.666;2023-05-10T05:44:18;68938.47;;;15.84;78.40
36354;BME280;22383;51.114;13.666;2023-05-10T05:46:51;68953.06;;;15.95;77.08
36354;BME280;22383;51.114;13.666;2023-05-10T05:49:18;69002.22;;;16.42;76.96
36354;BME280;22383;51.114;13.666;2023-05-10T05:51:46;69025.56;;;16.63;74.76
36354;BME280;22383;51.114;13.666;2023-05-10T05:54:25;69057.34;;;16.82;73.13
36354;BME280;22383;51.114;13.666;2023-05-10T05:57:01;69027.28;;;16.64;72.27
36354;BME280;22383;51.114;13.666;2023-05-10T05:59:31;69001.47;;;16.39;73.75
36354;BME280;22383;51.114;13.666;2023-05-10T06:02:03;69039.81;;;16.76;72.80
36354;BME280;22383;51.114;13.666;2023-05-10T06:04:31;69028.63;;;16.61;72.00
36354;BME280;22383;51.114;13.666;2023-05-10T06:06:58;69043.06;;;16.76;72.47
36354;BME280;22383;51.114;13.666;2023-05-10T06:09:29;69066.25;;;16.95;72.23
36354;BME280;22383;51.114;13.666;2023-05-10T06:11:59;69047.44;;;16.78;72.26
36354;BME280;22383;51.114;13.666;2023-05-10T06:14:29;69088.09;;;17.17;72.19
36354;BME280;22383;51.114;13.666;2023-05-10T06:16:59;69035.66;;;16.70;71.91
36354;BME280;22383;51.114;13.666;2023-05-10T06:19:27;68995.03;;;16.31;72.90
36354;BME280;22383;51.114;13.666;2023-05-10T06:21:54;68952.34;;;15.92;74.22
36354;BME280;22383;51.114;13.666;2023-05-10T06:24:24;68973.19;;;16.16;74.46
36354;BME280;22383;51.114;13.666;2023-05-10T06:26:58;68999.75;;;16.37;73.68
36354;BME280;22383;51.114;13.666;2023-05-10T06:29:27;69022.72;;;16.60;73.30
36354;BME280;22383;51.114;13.666;2023-05-10T06:31:56;69087.53;;;17.16;72.43
36354;BME280;22383;51.114;13.666;2023-05-10T06:34:24;69158.00;;;17.77;68.61
36354;BME280;22383;51.114;13.666;2023-05-10T06:36:54;69120.56;;;17.46;67.50
36354;BME280;22383;51.114;13.666;2023-05-10T06:39:31;69113.50;;;17.45;68.84
36354;BME280;22383;51.114;13.666;2023-05-10T06:42:06;69101.00;;;17.26;68.48
36354;BME280;22383;51.114;13.666;2023-05-10T06:44:36;69074.00;;;17.07;70.03
36354;BME280;22383;51.114;13.666;2023-05-10T06:47:03;69013.63;;;16.52;71.61
36354;BME280;22383;51.114;13.666;2023-05-10T06:49:30;69042.25;;;16.80;71.89
36354;BME280;22383;51.114;13.666;2023-05-10T06:51:58;69103.13;;;17.26;70.57
36354;BME280;22383;51.114;13.666;2023-05-10T06:54:25;69145.06;;;17.68;68.21
36354;BME280;22383;51.114;13.666;2023-05-10T06:56:57;69158.00;;;17.77;68.42
36354;BME280;22383;51.114;13.666;2023-05-10T06:59:30;69177.00;;;18.21;68.49
36354;BME280;22383;51.114;13.666;2023-05-10T07:01:58;69163.69;;;17.83;68.00
36354;BME280;22383;51.114;13.666;2023-05-10T07:04:27;69172.22;;;17.98;68.90
36354;BME280;22383;51.114;13.666;2023-05-10T07:07:03;69123.81;;;17.47;68.30
36354;BME280;22383;51.114;13.666;2023-05-10T07:09:36;69067.19;;;17.00;69.96
36354;BME280;22383;51.114;13.666;2023-05-10T07:12:05;69061.31;;;16.93;70.71
36354;BME280;22383;51.114;13.666;2023-05-10T07:14:44;69083.19;;;17.08;70.70
36354;BME280;22383;51.114;13.666;2023-05-10T07:17:14;69100.44;;;17.26;69.91
36354;BME280;22383;51.114;13.666;2023-05-10T07:19:41;69130.41;;;17.57;69.47
36354;BME280;22383;51.114;13.666;2023-05-10T07:22:08;69189.56;;;18.08;69.73
36354;BME280;22383;51.114;13.666;2023-05-10T07:24:37;69211.78;;;18.28;67.40
36354;BME280;22383;51.114;13.666;2023-05-10T07:27:11;69164.06;;;17.88;69.17
36354;BME280;22383;51.114;13.666;2023-05-10T07:29:38;69158.56;;;17.78;68.83
36354;BME280;22383;51.114;13.666;2023-05-10T07:32:08;69154.00;;;17.74;69.16
36354;BME280;22383;51.114;13.666;2023-05-10T07:34:35;69200.00;;;18.20;70.91
36354;BME280;22383;51.114;13.666;2023-05-10T07:37:02;69196.56;;;18.17;67.55
36354;BME280;22383;51.114;13.666;2023-05-10T07:39:35;69149.78;;;17.75;66.99
36354;BME280;22383;51.114;13.666;2023-05-10T07:42:02;69187.66;;;18.04;67.85
36354;BME280;22383;51.114;13.666;2023-05-10T07:44:34;69194.09;;;18.12;67.15
36354;BME280;22383;51.114;13.666;2023-05-10T07:47:02;69183.28;;;18.03;66.92
36354;BME280;22383;51.114;13.666;2023-05-10T07:49:29;69232.88;;;18.47;68.16
36354;BME280;22383;51.114;13.666;2023-05-10T07:52:00;69195.25;;;18.13;68.39
36354;BME280;22383;51.114;13.666;2023-05-10T07:54:27;69153.63;;;17.76;68.38
36354;BME280;22383;51.114;13.666;2023-05-10T07:56:56;69166.00;;;17.85;68.89
36354;BME280;22383;51.114;13.666;2023-05-10T07:59:26;69253.00;;;18.68;72.02
36354;BME280;22383;51.114;13.666;2023-05-10T08:01:55;69303.47;;;19.08;68.27
36354;BME280;22383;51.114;13.666;2023-05-10T08:04:23;69214.25;;;18.33;66.01
36354;BME280;22383;51.114;13.666;2023-05-10T08:06:54;69169.75;;;17.93;67.83
36354;BME280;22383;51.114;13.666;2023-05-10T08:09:24;69173.59;;;17.94;67.06
36354;BME280;22383;51.114;13.666;2023-05-10T08:11:53;69168.28;;;17.87;68.13
36354;BME280;22383;51.114;13.666;2023-05-10T08:14:21;69218.63;;;18.35;66.66
36354;BME280;22383;51.114;13.666;2023-05-10T08:16:48;69242.16;;;18.58;66.91
36354;BME280;22383;51.114;13.666;2023-05-10T08:19:15;69237.28;;;18.49;67.28
36354;BME280;22383;51.114;13.666;2023-05-10T08:21:46;69260.25;;;18.72;71.06
36354;BME280;22383;51.114;13.666;2023-05-10T08:24:18;69276.25;;;18.86;66.53
36354;BME280;22383;51.114;13.666;2023-05-10T08:26:47;69289.94;;;18.99;71.00
36354;BME280;22383;51.114;13.666;2023-05-10T08:29:18;69361.25;;;19.63;69.20
36354;BME280;22383;51.114;13.666;2023-05-10T08:31:46;69391.69;;;19.93;66.55
36354;BME280;22383;51.114;13.666;2023-05-10T08:34:14;69349.84;;;19.53;68.37
36354;BME280;22383;51.114;13.666;2023-05-10T08:36:45;69363.53;;;19.65;65.78
36354;BME280;22383;51.114;13.666;2023-05-10T08:39:13;69429.63;;;20.22;65.46
36354;BME280;22383;51.114;13.666;2023-05-10T08:42:02;69349.13;;;19.50;63.41
36354;BME280;22383;51.114;13.666;2023-05-10T08:44:31;69409.25;;;20.06;69.05
36354;BME280;22383;51.114;13.666;2023-05-10T08:46:59;69351.41;;;19.52;64.93
36354;BME280;22383;51.114;13.666;2023-05-10T08:49:30;69433.97;;;20.31;69.86
36354;BME280;22383;51.114;13.666;2023-05-10T08:52:02;69542.91;;;21.26;68.63
36354;BME280;22383;51.114;13.666;2023-05-10T08:54:32;69623.25;;;22.03;65.14
36354;BME280;22383;51.114;13.666;2023-05-10T08:57:02;69579.50;;;21.59;60.52
36354;BME280;22383;51.114;13.666;2023-05-10T08:59:30;69570.34;;;21.51;61.01
36354;BME280;22383;51.114;13.666;2023-05-10T09:01:57;69494.34;;;20.83;61.68
36354;BME280;22383;51.114;13.666;2023-05-10T09:04:27;69498.50;;;20.89;62.23
36354;BME280;22383;51.114;13.666;2023-05-10T09:06:55;69510.34;;;20.97;61.27
36354;BME280;22383;51.114;13.666;2023-05-10T09:09:23;69468.22;;;20.62;62.40
36354;BME280;22383;51.114;13.666;2023-05-10T09:11:51;69452.63;;;20.45;60.59
36354;BME280;22383;51.114;13.666;2023-05-10T09:14:20;69495.50;;;20.84;63.64
36354;BME280;22383;51.114;13.666;2023-05-10T09:16:47;69433.22;;;20.28;63.52
36354;BME280;22383;51.114;13.666;2023-05-10T09:19:14;69452.81;;;20.48;66.24
36354;BME280;22383;51.114;13.666;2023-05-10T09:21:42;69425.97;;;20.24;65.39
36354;BME280;22383;51.114;13.666;2023-05-10T09:24:12;69479.31;;;20.67;63.12
36354;BME280;22383;51.114;13.666;2023-05-10T09:26:48;69494.19;;;20.80;62.48
36354;BME280;22383;51.114;13.666;2023-05-10T09:29:16;69551.31;;;21.31;63.57
36354;BME280;22383;51.114;13.666;2023-05-10T09:31:50;69549.19;;;21.32;65.81
36354;BME280;22383;51.114;13.666;2023-05-10T09:34:31;69550.50;;;21.36;65.65
36354;BME280;22383;51.114;13.666;2023-05-10T09:37:06;69558.91;;;21.41;62.32
36354;BME280;22383;51.114;13.666;2023-05-10T09:39:36;69591.34;;;21.67;60.56
36354;BME280;22383;51.114;13.666;2023-05-10T09:42:10;69550.50;;;21.36;60.65
36354;BME280;22383;51.114;13.666;2023-05-10T09:44:37;69590.78;;;21.67;62.01
36354;BME280;22383;51.114;13.666;2023-05-10T09:47:06;69577.78;;;21.58;65.18
36354;BME280;22383;51.114;13.666;2023-05-10T09:49:34;69549.75;;;21.32;62.39
36354;BME280;22383;51.114;13.666;2023-05-10T09:52:06;69547.47;;;21.30;60.79
36354;BME280;22383;51.114;13.666;2023-05-10T09:54:34;69618.94;;;21.95;65.90
36354;BME280;22383;51.114;13.666;2023-05-10T09:57:04;69603.50;;;21.81;62.46
36354;BME280;22383;51.114;13.666;2023-05-10T09:59:32;69600.22;;;21.80;59.85
36354;BME280;22383;51.114;13.666;2023-05-10T10:02:00;69651.53;;;22.24;61.17
36354;BME280;22383;51.114;13.666;2023-05-10T10:04:28;69779.28;;;23.41;62.61
36354;BME280;22383;51.114;13.666;2023-05-10T10:07:02;69766.94;;;23.25;57.59
36354;BME280;22383;51.114;13.666;2023-05-10T10:09:30;69814.19;;;23.72;56.69
36354;BME280;22383;51.114;13.666;2023-05-10T10:12:03;69786.31;;;23.50;55.11
36354;BME280;22383;51.114;13.666;2023-05-10T10:14:31;69823.75;;;23.78;59.63
36354;BME280;22383;51.114;13.666;2023-05-10T10:17:01;69737.66;;;23.06;55.59
36354;BME280;22383;51.114;13.666;2023-05-10T10:19:33;69641.97;;;22.18;56.15
36354;BME280;22383;51.114;13.666;2023-05-10T10:22:00;69654.97;;;22.27;56.90
36354;BME280;22383;51.114;13.666;2023-05-10T10:24:28;69643.09;;;22.19;58.16
36354;BME280;22383;51.114;13.666;2023-05-10T10:27:04;69570.53;;;21.53;57.82
36354;BME280;22383;51.114;13.666;2023-05-10T10:29:45;69649.38;;;22.24;59.89
36354;BME280;22383;51.114;13.666;2023-05-10T10:32:25;69765.13;;;23.31;59.16
36354;BME280;22383;51.114;13.666;2023-05-10T10:34:56;69711.75;;;22.80;55.93
36354;BME280;22383;51.114;13.666;2023-05-10T10:37:23;69636.09;;;22.10;58.31
36354;BME280;22383;51.114;13.666;2023-05-10T10:40:23;69572.66;;;21.53;59.08
36354;BME280;22383;51.114;13.666;2023-05-10T10:42:51;69571.50;;;21.52;59.01
36354;BME280;22383;51.114;13.666;2023-05-10T10:45:19;69633.56;;;22.13;60.04
36354;BME280;22383;51.114;13.666;2023-05-10T10:47:47;69657.25;;;22.29;58.83
36354;BME280;22383;51.114;13.666;2023-05-10T10:50:15;69618.22;;;21.92;58.47
36354;BME280;22383;51.114;13.666;2023-05-10T10:52:44;69630.53;;;22.07;59.73
36354;BME280;22383;51.114;13.666;2023-05-10T10:55:17;69693.44;;;22.64;63.38
36354;BME280;22383;51.114;13.666;2023-05-10T10:57:51;69700.16;;;22.68;56.67
36354;BME280;22383;51.114;13.666;2023-05-10T11:02:59;69613.94;;;21.93;60.55
36354;BME280;22383;51.114;13.666;2023-05-10T11:10:40;69580.38;;;21.65;58.88
36354;BME280;22383;51.114;13.666;2023-05-10T11:13:15;69561.59;;;21.41;58.40
36354;BME280;22383;51.114;13.666;2023-05-10T11:15:48;69592.66;;;21.71;57.78
36354;BME280;22383;51.114;13.666;2023-05-10T11:18:20;69575.25;;;21.60;58.67
36354;BME280;22383;51.114;13.666;2023-05-10T11:21:00;69602.38;;;21.80;59.01
36354;BME280;22383;51.114;13.666;2023-05-10T11:23:48;69596.66;;;21.75;60.40
36354;BME280;22383;51.114;13.666;2023-05-10T11:26:15;69556.03;;;21.38;59.04
36354;BME280;22383;51.114;13.666;2023-05-10T11:28:47;69549.03;;;21.29;62.07
36354;BME280;22383;51.114;13.666;2023-05-10T11:31:18;69534.50;;;21.21;61.65
36354;BME280;22383;51.114;13.666;2023-05-10T11:33:52;69497.38;;;20.88;60.91
36354;BME280;22383;51.114;13.666;2023-05-10T11:36:35;69563.88;;;21.43;60.88
36354;BME280;22383;51.114;13.666;2023-05-10T11:39:04;69571.50;;;21.52;60.61
36354;BME280;22383;51.114;13.666;2023-05-10T11:41:34;69583.91;;;21.61;62.32
36354;BME280;22383;51.114;13.666;2023-05-10T11:44:02;69636.66;;;22.10;60.66
36354;BME280;22383;51.114;13.666;2023-05-10T11:46:29;69687.72;;;22.59;61.26
36354;BME280;22383;51.114;13.666;2023-05-10T11:49:00;69664.28;;;22.38;58.82
36354;BME280;22383;51.114;13.666;2023-05-10T11:51:29;69687.59;;;22.56;60.37
36354;BME280;22383;51.114;13.666;2023-05-10T11:53:59;69754.34;;;23.14;61.41
36354;BME280;22383;51.114;13.666;2023-05-10T11:56:26;69668.94;;;22.35;57.18
36354;BME280;22383;51.114;13.666;2023-05-10T11:58:57;69613.06;;;21.87;58.46
36354;BME280;22383;51.114;13.666;2023-05-10T12:01:26;69563.09;;;21.47;57.72
36354;BME280;22383;51.114;13.666;2023-05-10T12:03:58;69552.59;;;21.35;59.97
36354;BME280;22383;51.114;13.666;2023-05-10T12:06:30;69601.94;;;21.82;61.54
36354;BME280;22383;51.114;13.666;2023-05-10T12:08:59;69621.22;;;21.97;58.51
36354;BME280;22383;51.114;13.666;2023-05-10T12:11:27;69639.53;;;22.13;59.67
36354;BME280;22383;51.114;13.666;2023-05-10T12:13:55;69606.38;;;21.83;57.99
36354;BME280;22383;51.114;13.666;2023-05-10T12:16:29;69608.09;;;21.85;60.12
36354;BME280;22383;51.114;13.666;2023-05-10T12:19:00;69583.09;;;21.65;59.85
36354;BME280;22383;51.114;13.666;2023-05-10T12:21:29;69562.53;;;21.46;59.57
36354;BME280;22383;51.114;13.666;2023-05-10T12:24:00;69625.81;;;22.01;63.03
36354;BME280;22383;51.114;13.666;2023-05-10T12:26:29;69641.81;;;22.15;58.25
36354;BME280;22383;51.114;13.666;2023-05-10T12:29:19;69662.41;;;22.34;57.69
36354;BME280;22383;51.114;13.666;2023-05-10T12:31:59;69604.81;;;21.84;58.55
36354;BME280;22383;51.114;13.666;2023-05-10T12:34:35;69633.22;;;22.07;62.58
36354;BME280;22383;51.114;13.666;2023-05-10T12:37:05;69676.28;;;22.49;59.57
36354;BME280;22383;51.114;13.666;2023-05-10T12:39:43;69631.53;;;22.06;58.88
36354;BME280;22383;51.114;13.666;2023-05-10T12:42:14;69625.63;;;21.98;57.95
36354;BME280;22383;51.114;13.666;2023-05-10T12:44:48;69611.09;;;21.90;59.68
36354;BME280;22383;51.114;13.666;2023-05-10T12:47:15;69661.69;;;22.31;62.57
36354;BME280;22383;51.114;13.666;2023-05-10T12:49:43;69621.06;;;21.94;58.28
36354;BME280;22383;51.114;13.666;2023-05-10T12:52:10;69591.50;;;21.70;58.87
36354;BME280;22383;51.114;13.666;2023-05-10T12:54:38;69615.66;;;21.94;63.92
36354;BME280;22383;51.114;13.666;2023-05-10T12:57:05;69625.38;;;22.03;66.30
36354;BME280;22383;51.114;13.666;2023-05-10T12:59:32;69616.41;;;21.97;67.87
36354;BME280;22383;51.114;13.666;2023-05-10T13:02:03;69621.38;;;21.99;65.84
36354;BME280;22383;51.114;13.666;2023-05-10T13:04:30;69624.66;;;22.00;64.74
36354;BME280;22383;51.114;13.666;2023-05-10T13:06:57;69596.81;;;21.77;62.49
36354;BME280;22383;51.114;13.666;2023-05-10T13:09:26;69556.03;;;21.38;64.19
36354;BME280;22383;51.114;13.666;2023-05-10T13:11:53;69529.19;;;21.14;64.64
36354;BME280;22383;51.114;13.666;2023-05-10T13:14:23;69389.66;;;19.86;76.79
36354;BME280;22383;51.114;13.666;2023-05-10T13:16:50;69349.47;;;19.55;82.59
36354;BME280;22383;51.114;13.666;2023-05-10T13:19:17;69382.97;;;19.82;86.51
36354;BME280;22383;51.114;13.666;2023-05-10T13:21:44;69348.88;;;19.54;85.37
36354;BME280;22383;51.114;13.666;2023-05-10T13:24:13;69332.41;;;19.32;92.54
36354;BME280;22383;51.114;13.666;2023-05-10T13:26:40;69284.66;;;18.92;100.00
36354;BME280;22383;51.114;13.666;2023-05-10T13:29:08;69263.28;;;18.77;100.00
36354;BME280;22383;51.114;13.666;2023-05-10T13:31:35;69270.53;;;18.81;100.00
36354;BME280;22383;51.114;13.666;2023-05-10T13:34:03;69271.69;;;18.82;100.00